Time,TemperatureF,DewpointF,PressureIn,WindDirection,WindDirectionDegrees,WindSpeedMPH,WindSpeedGustMPH,Humidity,HourlyPrecipIn,Conditions,Clouds,dailyrainin,SoftwareType,DateUTC
2013-05-27 00:03:00,58.0,50.0,-100.00,ESE,105,0.0,1.0,73,0.00,,,-99.99,,2013-05-27 04:03:00,
2013-05-27 00:12:00,58.0,50.0,-100.00,East,80,0.0,1.0,73,0.00,,,-99.99,,2013-05-27 04:12:00,
2013-05-27 00:23:00,58.0,50.0,-100.00,ENE,75,0.0,1.0,74,0.00,,,-99.99,,2013-05-27 04:23:00,
2013-05-27 00:33:00,58.0,50.0,-100.00,ENE,70,0.0,0.0,74,0.00,,,-99.99,,2013-05-27 04:33:00,
2013-05-27 00:43:00,58.0,49.0,-100.00,East,90,0.0,0.0,73,0.00,,,-99.99,,2013-05-27 04:43:00,
2013-05-27 00:52:00,58.0,49.0,-100.00,East,90,0.0,0.0,72,0.00,,,-99.99,,2013-05-27 04:52:00,
2013-05-27 01:02:00,58.0,48.0,-100.00,ENE,65,0.0,0.0,70,0.00,,,-99.99,,2013-05-27 05:02:00,
2013-05-27 01:12:00,58.0,49.0,-100.00,NNE,15,0.0,1.0,71,0.00,,,-99.99,,2013-05-27 05:12:00,
2013-05-27 01:22:00,58.0,50.0,-100.00,East,95,0.0,1.0,74,0.00,,,-99.99,,2013-05-27 05:22:00,
2013-05-27 01:32:00,57.0,49.0,-100.00,East,95,0.0,2.0,73,0.00,,,-99.99,,2013-05-27 05:32:00,
2013-05-27 01:42:00,57.0,50.0,-100.00,East,100,1.0,2.0,75,0.00,,,-99.99,,2013-05-27 05:42:00,
2013-05-27 01:52:00,58.0,50.0,-100.00,ESE,110,0.0,2.0,74,0.00,,,-99.99,,2013-05-27 05:52:00,
2013-05-27 02:02:00,57.0,49.0,-100.00,East,85,0.0,0.0,74,0.00,,,-99.99,,2013-05-27 06:02:00,
2013-05-27 02:11:00,56.0,49.0,-100.00,ENE,75,0.0,1.0,75,0.00,,,-99.99,,2013-05-27 06:11:00,
2013-05-27 02:22:00,56.0,49.0,-100.00,East,100,0.0,0.0,76,0.00,,,-99.99,,2013-05-27 06:22:00,
2013-05-27 02:32:00,56.0,49.0,-100.00,East,100,0.0,0.0,77,0.00,,,-99.99,,2013-05-27 06:32:00,
2013-05-27 02:42:00,56.0,50.0,-100.00,East,95,0.0,0.0,78,0.00,,,-99.99,,2013-05-27 06:42:00,
2013-05-27 02:52:00,56.0,50.0,-100.00,ENE,75,0.0,1.0,79,0.00,,,-99.99,,2013-05-27 06:52:00,
2013-05-27 03:02:00,56.0,50.0,-100.00,ESE,110,1.0,2.0,78,0.00,,,-99.99,,2013-05-27 07:02:00,
2013-05-27 03:11:00,56.0,49.0,-100.00,ESE,110,2.0,3.0,78,0.00,,,-99.99,,2013-05-27 07:11:00,
2013-05-27 03:21:00,56.0,49.0,-100.00,ESE,110,0.0,3.0,76,0.00,,,-99.99,,2013-05-27 07:21:00,
2013-05-27 03:32:00,56.0,49.0,-100.00,East,95,0.0,2.0,75,0.00,,,-99.99,,2013-05-27 07:32:00,
2013-05-27 03:42:00,56.0,49.0,-100.00,East,100,0.0,3.0,76,0.00,,,-99.99,,2013-05-27 07:42:00,
2013-05-27 03:52:00,57.0,47.0,-100.00,ENE,70,0.0,3.0,68,0.00,,,-99.99,,2013-05-27 07:52:00,
2013-05-27 04:02:00,57.0,46.0,-100.00,NW,320,0.0,1.0,68,0.00,,,-99.99,,2013-05-27 08:02:00,
2013-05-27 04:11:00,57.0,49.0,-100.00,East,95,0.0,0.0,75,0.00,,,-99.99,,2013-05-27 08:11:00,
2013-05-27 04:22:00,56.0,49.0,-100.00,NE,55,0.0,1.0,77,0.00,,,-99.99,,2013-05-27 08:22:00,
2013-05-27 04:33:00,56.0,49.0,-100.00,East,95,0.0,0.0,78,0.00,,,-99.99,,2013-05-27 08:33:00,
2013-05-27 04:42:00,56.0,50.0,-100.00,NE,55,0.0,0.0,80,0.00,,,-99.99,,2013-05-27 08:42:00,
2013-05-27 04:52:00,55.0,49.0,-100.00,ENE,75,0.0,1.0,80,0.00,,,-99.99,,2013-05-27 08:52:00,
2013-05-27 05:02:00,55.0,47.0,-100.00,NNE,30,0.0,0.0,75,0.00,,,-99.99,,2013-05-27 09:02:00,
2013-05-27 05:11:00,55.0,49.0,-100.00,ESE,105,0.0,1.0,79,0.00,,,-99.99,,2013-05-27 09:11:00,
2013-05-27 05:21:00,55.0,48.0,-100.00,East,100,0.0,2.0,76,0.00,,,-99.99,,2013-05-27 09:21:00,
2013-05-27 05:33:00,55.0,48.0,-100.00,ESE,110,1.0,2.0,76,0.00,,,-99.99,,2013-05-27 09:33:00,
2013-05-27 05:42:00,56.0,48.0,-100.00,ESE,110,1.0,2.0,74,0.00,,,-99.99,,2013-05-27 09:42:00,
2013-05-27 05:53:00,56.0,48.0,-100.00,ESE,120,0.0,2.0,75,0.00,,,-99.99,,2013-05-27 09:53:00,
2013-05-27 06:03:00,56.0,48.0,-100.00,ESE,110,0.0,0.0,74,0.00,,,-99.99,,2013-05-27 10:03:00,
2013-05-27 06:12:00,56.0,49.0,-100.00,ENE,75,0.0,1.0,76,0.00,,,-99.99,,2013-05-27 10:12:00,
2013-05-27 06:22:00,56.0,48.0,-100.00,ENE,75,0.0,0.0,75,0.00,,,-99.99,,2013-05-27 10:22:00,
2013-05-27 06:32:00,56.0,49.0,-100.00,East,100,0.0,0.0,78,0.00,,,-99.99,,2013-05-27 10:32:00,
2013-05-27 06:42:00,56.0,49.0,-100.00,ESE,105,0.0,0.0,78,0.00,,,-99.99,,2013-05-27 10:42:00,
2013-05-27 06:52:00,56.0,50.0,-100.00,East,85,0.0,0.0,79,0.00,,,-99.99,,2013-05-27 10:52:00,
2013-05-27 07:02:00,56.0,48.0,-100.00,SSE,160,0.0,0.0,72,0.00,,,-99.99,,2013-05-27 11:02:00,
2013-05-27 07:11:00,56.0,49.0,-100.00,East,95,0.0,2.0,78,0.00,,,-99.99,,2013-05-27 11:11:00,
2013-05-27 07:22:00,56.0,49.0,-100.00,North,10,0.0,2.0,79,0.00,,,-99.99,,2013-05-27 11:22:00,
2013-05-27 07:32:00,56.0,50.0,-100.00,East,90,0.0,0.0,80,0.00,,,-99.99,,2013-05-27 11:32:00,
2013-05-27 07:42:00,56.0,48.0,-100.00,ESE,105,0.0,3.0,75,0.00,,,-99.99,,2013-05-27 11:42:00,
2013-05-27 07:52:00,56.0,49.0,-100.00,ESE,120,0.0,3.0,77,0.00,,,-99.99,,2013-05-27 11:52:00,
2013-05-27 08:01:00,56.0,50.0,-100.00,East,100,0.0,2.0,80,0.00,,,-99.99,,2013-05-27 12:01:00,
2013-05-27 08:11:00,55.0,51.0,-100.00,ESE,115,0.0,0.0,83,0.00,,,-99.99,,2013-05-27 12:11:00,
2013-05-27 08:22:00,55.0,51.0,-100.00,ESE,110,0.0,0.0,84,0.00,,,-99.99,,2013-05-27 12:22:00,
2013-05-27 08:32:00,55.0,51.0,-100.00,SSW,205,0.0,1.0,85,0.00,,,-99.99,,2013-05-27 12:32:00,
2013-05-27 08:42:00,55.0,51.0,-100.00,ENE,60,0.0,1.0,86,0.55,,,-99.99,,2013-05-27 12:42:00,
2013-05-27 08:52:00,55.0,52.0,-100.00,East,90,0.0,1.0,88,0.00,,,-99.99,,2013-05-27 12:52:00,
2013-05-27 09:02:00,54.0,51.0,-100.00,ENE,70,0.0,3.0,88,0.00,,,-99.99,,2013-05-27 13:02:00,
2013-05-27 09:11:00,55.0,51.0,-100.00,ESE,115,0.0,4.0,87,0.00,,,-99.99,,2013-05-27 13:11:00,
2013-05-27 09:22:00,55.0,51.0,-100.00,East,100,1.0,4.0,86,0.00,,,-99.99,,2013-05-27 13:22:00,
2013-05-27 09:32:00,56.0,52.0,-100.00,East,85,1.0,4.0,85,0.00,,,-99.99,,2013-05-27 13:32:00,
2013-05-27 09:42:00,58.0,53.0,-100.00,South,190,1.0,5.0,84,0.00,,,-99.99,,2013-05-27 13:42:00,
2013-05-27 09:52:00,58.0,53.0,-100.00,ENE,60,0.0,4.0,82,0.00,,,-99.99,,2013-05-27 13:52:00,
2013-05-27 10:02:00,60.0,53.0,-100.00,ESE,120,1.0,3.0,77,0.00,,,-99.99,,2013-05-27 14:02:00,
2013-05-27 10:11:00,61.0,53.0,-100.00,SSE,160,0.0,4.0,74,0.00,,,-99.99,,2013-05-27 14:11:00,
2013-05-27 10:22:00,61.0,52.0,-100.00,ESE,110,0.0,3.0,74,0.00,,,-99.99,,2013-05-27 14:22:00,
2013-05-27 10:32:00,61.0,53.0,-100.00,East,85,1.0,3.0,73,0.00,,,-99.99,,2013-05-27 14:32:00,
2013-05-27 10:42:00,62.0,53.0,-100.00,ENE,75,1.0,3.0,72,0.00,,,-99.99,,2013-05-27 14:42:00,
2013-05-27 10:52:00,62.0,52.0,-100.00,SE,125,0.0,4.0,70,0.00,,,-99.99,,2013-05-27 14:52:00,
2013-05-27 11:01:00,62.0,52.0,-100.00,East,85,1.0,4.0,69,0.00,,,-99.99,,2013-05-27 15:01:00,
2013-05-27 11:11:00,62.0,52.0,-100.00,NNE,30,0.0,4.0,69,0.00,,,-99.99,,2013-05-27 15:11:00,
2013-05-27 11:21:00,63.0,53.0,-100.00,ESE,110,1.0,3.0,69,0.00,,,-99.99,,2013-05-27 15:21:00,
2013-05-27 11:33:00,64.0,53.0,-100.00,ENE,65,0.0,6.0,68,0.00,,,-99.99,,2013-05-27 15:33:00,
2013-05-27 11:43:00,65.0,54.0,-100.00,East,80,1.0,6.0,67,0.00,,,-99.99,,2013-05-27 15:43:00,
2013-05-27 11:53:00,65.0,54.0,-100.00,ESE,115,1.0,4.0,65,0.00,,,-99.99,,2013-05-27 15:53:00,
2013-05-27 12:03:00,67.0,53.0,-100.00,NE,35,0.0,6.0,61,0.00,,,-99.99,,2013-05-27 16:03:00,
2013-05-27 12:12:00,67.0,54.0,-100.00,North,0,1.0,4.0,62,0.00,,,-99.99,,2013-05-27 16:12:00,
2013-05-27 12:23:00,69.0,54.0,-100.00,ENE,65,1.0,5.0,59,0.00,,,-99.99,,2013-05-27 16:23:00,
2013-05-27 12:33:00,70.0,54.0,-100.00,East,80,1.0,4.0,58,0.00,,,-99.99,,2013-05-27 16:33:00,
2013-05-27 12:42:00,70.0,54.0,-100.00,East,85,1.0,5.0,55,0.00,,,-99.99,,2013-05-27 16:42:00,
2013-05-27 12:52:00,71.0,55.0,-100.00,ESE,115,1.0,5.0,57,0.00,,,-99.99,,2013-05-27 16:52:00,
2013-05-27 13:02:00,72.0,55.0,-100.00,ENE,70,1.0,7.0,55,0.00,,,-99.99,,2013-05-27 17:02:00,
2013-05-27 13:11:00,71.0,55.0,-100.00,East,100,1.0,6.0,56,0.00,,,-99.99,,2013-05-27 17:11:00,
2013-05-27 13:22:00,74.0,56.0,-100.00,ENE,65,1.0,4.0,53,0.00,,,-99.99,,2013-05-27 17:22:00,
2013-05-27 13:32:00,74.0,57.0,-100.00,ENE,70,3.0,6.0,55,0.00,,,-99.99,,2013-05-27 17:32:00,
2013-05-27 13:43:00,75.0,57.0,-100.00,ENE,60,2.0,8.0,52,0.00,,,-99.99,,2013-05-27 17:43:00,
2013-05-27 13:52:00,75.0,56.0,-100.00,ESE,120,2.0,6.0,50,0.00,,,-99.99,,2013-05-27 17:52:00,
2013-05-27 14:02:00,74.0,55.0,-100.00,SSE,150,4.0,9.0,51,0.00,,,-99.99,,2013-05-27 18:02:00,
2013-05-27 14:11:00,78.0,58.0,-100.00,East,80,1.0,9.0,51,0.00,,,-99.99,,2013-05-27 18:11:00,
2013-05-27 14:22:00,78.0,58.0,-100.00,East,80,1.0,9.0,51,0.00,,,-99.99,,2013-05-27 18:22:00,
2013-05-27 14:32:00,78.0,57.0,-100.00,ESE,105,1.0,7.0,48,0.00,,,-99.99,,2013-05-27 18:32:00,
2013-05-27 14:42:00,79.0,58.0,-100.00,East,80,1.0,6.0,47,0.00,,,-99.99,,2013-05-27 18:42:00,
2013-05-27 14:52:00,80.0,56.0,-100.00,East,80,2.0,5.0,43,0.00,,,-99.99,,2013-05-27 18:52:00,
2013-05-27 15:01:00,80.0,57.0,-100.00,East,80,1.0,5.0,45,0.00,,,-99.99,,2013-05-27 19:01:00,
2013-05-27 15:11:00,80.0,58.0,-100.00,ESE,105,3.0,6.0,46,0.00,,,-99.99,,2013-05-27 19:11:00,
2013-05-27 15:22:00,81.0,58.0,-100.00,East,85,3.0,7.0,44,0.00,,,-99.99,,2013-05-27 19:22:00,
2013-05-27 15:32:00,81.0,57.0,-100.00,ESE,120,2.0,7.0,43,0.00,,,-99.99,,2013-05-27 19:32:00,
2013-05-27 15:42:00,81.0,56.0,-100.00,ESE,105,1.0,6.0,42,0.00,,,-99.99,,2013-05-27 19:42:00,
2013-05-27 15:52:00,82.0,57.0,-100.00,ESE,115,2.0,6.0,42,0.00,,,-99.99,,2013-05-27 19:52:00,
2013-05-27 16:02:00,82.0,55.0,-100.00,SE,130,1.0,6.0,40,0.00,,,-99.99,,2013-05-27 20:02:00,
2013-05-27 16:11:00,82.0,56.0,-100.00,SSE,155,1.0,5.0,41,0.00,,,-99.99,,2013-05-27 20:11:00,
2013-05-27 16:22:00,83.0,54.0,-100.00,SSE,155,2.0,6.0,37,0.00,,,-99.99,,2013-05-27 20:22:00,
2013-05-27 16:32:00,83.0,57.0,-100.00,SSE,150,7.0,11.0,40,0.00,,,-99.99,,2013-05-27 20:32:00,
2013-05-27 16:42:00,82.0,55.0,-100.00,ENE,70,2.0,10.0,40,0.00,,,-99.99,,2013-05-27 20:42:00,
2013-05-27 16:52:00,82.0,55.0,-100.00,SE,135,3.0,9.0,39,0.00,,,-99.99,,2013-05-27 20:52:00,
2013-05-27 17:01:00,84.0,56.0,-100.00,SE,145,3.0,7.0,38,0.00,,,-99.99,,2013-05-27 21:01:00,
2013-05-27 17:12:00,84.0,55.0,-100.00,SW,215,4.0,11.0,37,0.00,,,-99.99,,2013-05-27 21:12:00,
2013-05-27 17:21:00,82.0,55.0,-100.00,South,170,3.0,10.0,39,0.00,,,-99.99,,2013-05-27 21:21:00,
2013-05-27 17:33:00,84.0,56.0,-100.00,SSW,205,3.0,8.0,38,0.00,,,-99.99,,2013-05-27 21:33:00,
2013-05-27 17:43:00,82.0,57.0,-100.00,SSE,150,3.0,9.0,41,0.00,,,-99.99,,2013-05-27 21:43:00,
2013-05-27 17:53:00,83.0,56.0,-100.00,SW,215,5.0,7.0,40,0.00,,,-99.99,,2013-05-27 21:53:00,
2013-05-27 18:02:00,82.0,57.0,-100.00,SSW,200,2.0,6.0,42,0.00,,,-99.99,,2013-05-27 22:02:00,
2013-05-27 18:12:00,83.0,57.0,-100.00,South,175,2.0,6.0,41,0.00,,,-99.99,,2013-05-27 22:12:00,
2013-05-27 18:22:00,83.0,56.0,-100.00,South,185,3.0,8.0,40,0.00,,,-99.99,,2013-05-27 22:22:00,
2013-05-27 18:33:00,84.0,57.0,-100.00,SSW,205,2.0,7.0,39,0.00,,,-99.99,,2013-05-27 22:33:00,
2013-05-27 18:42:00,83.0,56.0,-100.00,SSW,205,4.0,9.0,39,0.00,,,-99.99,,2013-05-27 22:42:00,
2013-05-27 18:52:00,83.0,56.0,-100.00,SSE,155,2.0,7.0,39,0.00,,,-99.99,,2013-05-27 22:52:00,
2013-05-27 19:02:00,82.0,57.0,-100.00,South,185,1.0,6.0,42,0.00,,,-99.99,,2013-05-27 23:02:00,
2013-05-27 19:12:00,82.0,57.0,-100.00,SSW,210,3.0,7.0,42,0.00,,,-99.99,,2013-05-27 23:12:00,
2013-05-27 19:22:00,82.0,57.0,-100.00,SSE,160,3.0,6.0,42,0.00,,,-99.99,,2013-05-27 23:22:00,
2013-05-27 19:32:00,82.0,57.0,-100.00,South,185,4.0,9.0,42,0.00,,,-99.99,,2013-05-27 23:32:00,
2013-05-27 19:42:00,82.0,57.0,-100.00,SSE,155,2.0,6.0,42,0.00,,,-99.99,,2013-05-27 23:42:00,
2013-05-27 19:52:00,82.0,58.0,-100.00,South,185,1.0,6.0,44,0.00,,,-99.99,,2013-05-27 23:52:00,
2013-05-27 20:01:00,81.0,58.0,-100.00,SSE,150,3.0,6.0,45,0.00,,,-99.99,,2013-05-28 00:01:00,
2013-05-27 20:11:00,81.0,58.0,-100.00,South,185,3.0,7.0,45,0.00,,,-99.99,,2013-05-28 00:11:00,
2013-05-27 20:21:00,80.0,59.0,-100.00,SSE,150,1.0,6.0,49,0.00,,,-99.99,,2013-05-28 00:21:00,
2013-05-27 20:32:00,78.0,60.0,-100.00,East,90,0.0,3.0,52,0.00,,,-99.99,,2013-05-28 00:32:00,
2013-05-27 20:42:00,78.0,60.0,-100.00,SE,135,0.0,3.0,54,0.00,,,-99.99,,2013-05-28 00:42:00,
2013-05-27 20:52:00,77.0,59.0,-100.00,East,90,0.0,2.0,53,0.00,,,-99.99,,2013-05-28 00:52:00,
2013-05-27 21:01:00,77.0,60.0,-100.00,SSE,160,0.0,1.0,55,0.00,,,-99.99,,2013-05-28 01:01:00,
2013-05-27 21:11:00,77.0,59.0,-100.00,ENE,65,0.0,2.0,54,0.00,,,-99.99,,2013-05-28 01:11:00,
2013-05-27 21:22:00,76.0,60.0,-100.00,ENE,75,0.0,1.0,56,0.00,,,-99.99,,2013-05-28 01:22:00,
2013-05-27 21:32:00,76.0,61.0,-100.00,SE,125,0.0,2.0,60,0.00,,,-99.99,,2013-05-28 01:32:00,
2013-05-27 21:41:00,75.0,60.0,-100.00,ENE,65,0.0,2.0,59,0.00,,,-99.99,,2013-05-28 01:41:00,
2013-05-27 21:52:00,76.0,60.0,-100.00,SW,230,1.0,3.0,57,0.00,,,-99.99,,2013-05-28 01:52:00,
2013-05-27 22:02:00,77.0,60.0,-100.00,WSW,255,1.0,3.0,55,0.00,,,-99.99,,2013-05-28 02:02:00,
2013-05-27 22:11:00,77.0,60.0,-100.00,WNW,300,0.0,2.0,56,0.00,,,-99.99,,2013-05-28 02:11:00,
2013-05-27 22:22:00,76.0,60.0,-100.00,SW,220,0.0,1.0,58,0.00,,,-99.99,,2013-05-28 02:22:00,
2013-05-27 22:32:00,75.0,60.0,-100.00,SSW,210,0.0,0.0,59,0.00,,,-99.99,,2013-05-28 02:32:00,
2013-05-27 22:42:00,74.0,60.0,-100.00,ENE,70,0.0,0.0,62,0.00,,,-99.99,,2013-05-28 02:42:00,
2013-05-27 22:52:00,74.0,60.0,-100.00,NE,35,0.0,2.0,63,0.00,,,-99.99,,2013-05-28 02:52:00,
2013-05-27 23:01:00,76.0,59.0,-100.00,SSW,200,1.0,5.0,57,0.00,,,-99.99,,2013-05-28 03:01:00,
2013-05-27 23:11:00,76.0,58.0,-100.00,South,185,3.0,7.0,53,0.00,,,-99.99,,2013-05-28 03:11:00,
2013-05-27 23:21:00,75.0,60.0,-100.00,SW,220,1.0,6.0,59,0.00,,,-99.99,,2013-05-28 03:21:00,
2013-05-27 23:33:00,74.0,59.0,-100.00,West,270,0.0,2.0,59,0.00,,,-99.99,,2013-05-28 03:33:00,
2013-05-27 23:43:00,73.0,59.0,-100.00,SSW,210,0.0,1.0,61,0.00,,,-99.99,,2013-05-28 03:43:00,
2013-05-27 23:53:00,72.0,59.0,-100.00,SSW,210,0.0,1.0,62,0.00,,,-99.99,,2013-05-28 03:53:00,